<?xml version="1.0" encoding="UTF-8" standalone="no" ?>
<gpx xmlns="http://www.topografix.com/GPX/1/1" xmlns:xsi="http://www.w3.org/2001/XMLSchema-instance" xsi:schemaLocation="http://www.topografix.com/GPX/1/1 http://www.topografix.com/GPX/1/1/gpx.xsd" version="1.1" creator="VisuGPX - https://www.visugpx.com">
  <metadata>
    <name>Cachaço à Tarrafal</name>
    <desc><![CDATA[Cachaço à Tarrafal; Trace faite sur l'ordi!]]></desc>
  </metadata>
  <trk>
    <name><![CDATA[Cachaço à Tarrafal]]></name>
    <trkseg>
      <trkpt lat="16.62094" lon="-24.33361">
        <ele>733.3</ele>
        <time>2014-12-16T20:26:40Z</time>
      </trkpt>
      <trkpt lat="16.62131" lon="-24.33358">
        <ele>733.2</ele>
        <time>2014-12-16T20:26:33Z</time>
      </trkpt>
      <trkpt lat="16.62287" lon="-24.33431">
        <ele>732.5</ele>
        <time>2014-12-16T20:25:52Z</time>
      </trkpt>
      <trkpt lat="16.62285" lon="-24.3344">
        <ele>732.7</ele>
        <time>2014-12-16T20:25:46Z</time>
      </trkpt>
      <trkpt lat="16.62304" lon="-24.33385">
        <ele>733</ele>
        <time>2014-12-16T20:25:31Z</time>
      </trkpt>
      <trkpt lat="16.62303" lon="-24.33431">
        <ele>733.4</ele>
        <time>2014-12-16T20:25:15Z</time>
      </trkpt>
      <trkpt lat="16.6228" lon="-24.33436">
        <ele>734.1</ele>
        <time>2014-12-16T20:24:03Z</time>
      </trkpt>
      <trkpt lat="16.62304" lon="-24.33435">
        <ele>734.8</ele>
        <time>2014-12-16T20:23:36Z</time>
      </trkpt>
      <trkpt lat="16.62291" lon="-24.33448">
        <ele>735.1</ele>
        <time>2014-12-16T20:23:08Z</time>
      </trkpt>
      <trkpt lat="16.62285" lon="-24.33417">
        <ele>735.2</ele>
        <time>2014-12-16T20:22:20Z</time>
      </trkpt>
      <trkpt lat="16.62282" lon="-24.33427">
        <ele>735.8</ele>
        <time>2014-12-16T20:22:11Z</time>
      </trkpt>
      <trkpt lat="16.62265" lon="-24.3341">
        <ele>739.7</ele>
        <time>2014-12-16T20:21:30Z</time>
      </trkpt>
      <trkpt lat="16.62238" lon="-24.33411">
        <ele>741.1</ele>
        <time>2014-12-16T20:20:52Z</time>
      </trkpt>
      <trkpt lat="16.62258" lon="-24.33411">
        <ele>742.4</ele>
        <time>2014-12-16T20:20:04Z</time>
      </trkpt>
      <trkpt lat="16.62262" lon="-24.33425">
        <ele>742.7</ele>
        <time>2014-12-16T20:19:48Z</time>
      </trkpt>
      <trkpt lat="16.62259" lon="-24.33406">
        <ele>740.3</ele>
        <time>2014-12-16T20:19:25Z</time>
      </trkpt>
      <trkpt lat="16.62236" lon="-24.33417">
        <ele>737.9</ele>
        <time>2014-12-16T20:19:01Z</time>
      </trkpt>
      <trkpt lat="16.62189" lon="-24.33404">
        <ele>737.6</ele>
        <time>2014-12-16T20:18:36Z</time>
      </trkpt>
      <trkpt lat="16.62269" lon="-24.33403">
        <ele>736.6</ele>
        <time>2014-12-16T20:14:22Z</time>
      </trkpt>
      <trkpt lat="16.62206" lon="-24.33407">
        <ele>737.5</ele>
        <time>2014-12-16T20:13:21Z</time>
      </trkpt>
      <trkpt lat="16.62249" lon="-24.3341">
        <ele>737.3</ele>
        <time>2014-12-16T20:10:39Z</time>
      </trkpt>
      <trkpt lat="16.62249" lon="-24.33401">
        <ele>737.3</ele>
        <time>2014-12-16T20:10:17Z</time>
      </trkpt>
      <trkpt lat="16.62253" lon="-24.33411">
        <ele>738.2</ele>
        <time>2014-12-16T20:09:44Z</time>
      </trkpt>
      <trkpt lat="16.62239" lon="-24.33416">
        <ele>740.9</ele>
        <time>2014-12-16T20:09:00Z</time>
      </trkpt>
      <trkpt lat="16.6225" lon="-24.33387">
        <ele>753.1</ele>
        <time>2014-12-16T20:06:04Z</time>
      </trkpt>
      <trkpt lat="16.62258" lon="-24.33407">
        <ele>754.8</ele>
        <time>2014-12-16T20:05:12Z</time>
      </trkpt>
      <trkpt lat="16.62229" lon="-24.33406">
        <ele>763.8</ele>
        <time>2014-12-16T20:03:25Z</time>
      </trkpt>
      <trkpt lat="16.62234" lon="-24.33427">
        <ele>767.4</ele>
        <time>2014-12-16T20:02:17Z</time>
      </trkpt>
      <trkpt lat="16.62187" lon="-24.33546">
        <ele>776.1</ele>
        <time>2014-12-16T20:00:20Z</time>
      </trkpt>
      <trkpt lat="16.62188" lon="-24.33607">
        <ele>781.3</ele>
        <time>2014-12-16T19:59:35Z</time>
      </trkpt>
      <trkpt lat="16.62172" lon="-24.33668">
        <ele>784.5</ele>
        <time>2014-12-16T19:58:42Z</time>
      </trkpt>
      <trkpt lat="16.62216" lon="-24.33737">
        <ele>786.6</ele>
        <time>2014-12-16T19:57:23Z</time>
      </trkpt>
      <trkpt lat="16.62204" lon="-24.33752">
        <ele>787.9</ele>
        <time>2014-12-16T19:57:08Z</time>
      </trkpt>
      <trkpt lat="16.62192" lon="-24.33941">
        <ele>816.2</ele>
        <time>2014-12-16T19:53:03Z</time>
      </trkpt>
      <trkpt lat="16.62208" lon="-24.33985">
        <ele>831.1</ele>
        <time>2014-12-16T19:52:21Z</time>
      </trkpt>
      <trkpt lat="16.62185" lon="-24.34036">
        <ele>858.3</ele>
        <time>2014-12-16T19:51:30Z</time>
      </trkpt>
      <trkpt lat="16.62129" lon="-24.34064">
        <ele>882.3</ele>
        <time>2014-12-16T19:49:59Z</time>
      </trkpt>
      <trkpt lat="16.62167" lon="-24.34108">
        <ele>909.8</ele>
        <time>2014-12-16T19:47:39Z</time>
      </trkpt>
      <trkpt lat="16.62216" lon="-24.34137">
        <ele>926.5</ele>
        <time>2014-12-16T19:45:05Z</time>
      </trkpt>
      <trkpt lat="16.62232" lon="-24.34168">
        <ele>944</ele>
        <time>2014-12-16T19:44:07Z</time>
      </trkpt>
      <trkpt lat="16.62203" lon="-24.34165">
        <ele>948.4</ele>
        <time>2014-12-16T19:43:49Z</time>
      </trkpt>
      <trkpt lat="16.62177" lon="-24.34185">
        <ele>967.9</ele>
        <time>2014-12-16T19:42:55Z</time>
      </trkpt>
      <trkpt lat="16.62111" lon="-24.34175">
        <ele>986.5</ele>
        <time>2014-12-16T19:41:32Z</time>
      </trkpt>
      <trkpt lat="16.62086" lon="-24.34195">
        <ele>993.8</ele>
        <time>2014-12-16T19:40:57Z</time>
      </trkpt>
      <trkpt lat="16.6207" lon="-24.34235">
        <ele>997.8</ele>
        <time>2014-12-16T19:40:39Z</time>
      </trkpt>
      <trkpt lat="16.62067" lon="-24.34225">
        <ele>999.4</ele>
        <time>2014-12-16T19:40:16Z</time>
      </trkpt>
      <trkpt lat="16.62058" lon="-24.34234">
        <ele>1004.4</ele>
        <time>2014-12-16T19:39:48Z</time>
      </trkpt>
      <trkpt lat="16.62056" lon="-24.34244">
        <ele>1006.4</ele>
        <time>2014-12-16T19:39:40Z</time>
      </trkpt>
      <trkpt lat="16.62088" lon="-24.3425">
        <ele>1012.1</ele>
        <time>2014-12-16T19:39:06Z</time>
      </trkpt>
      <trkpt lat="16.6212" lon="-24.34286">
        <ele>1015.7</ele>
        <time>2014-12-16T19:38:22Z</time>
      </trkpt>
      <trkpt lat="16.62082" lon="-24.34324">
        <ele>1022.5</ele>
        <time>2014-12-16T19:37:13Z</time>
      </trkpt>
      <trkpt lat="16.62085" lon="-24.3434">
        <ele>1024.6</ele>
        <time>2014-12-16T19:36:55Z</time>
      </trkpt>
      <trkpt lat="16.62058" lon="-24.34324">
        <ele>1029.5</ele>
        <time>2014-12-16T19:35:34Z</time>
      </trkpt>
      <trkpt lat="16.62034" lon="-24.34342">
        <ele>1032.6</ele>
        <time>2014-12-16T19:34:57Z</time>
      </trkpt>
      <trkpt lat="16.62071" lon="-24.34392">
        <ele>1037.2</ele>
        <time>2014-12-16T19:33:15Z</time>
      </trkpt>
      <trkpt lat="16.6207" lon="-24.34432">
        <ele>1039.3</ele>
        <time>2014-12-16T19:32:21Z</time>
      </trkpt>
      <trkpt lat="16.62089" lon="-24.34422">
        <ele>1043.6</ele>
        <time>2014-12-16T19:30:39Z</time>
      </trkpt>
      <trkpt lat="16.62098" lon="-24.34461">
        <ele>1045.9</ele>
        <time>2014-12-16T19:30:08Z</time>
      </trkpt>
      <trkpt lat="16.6208" lon="-24.34518">
        <ele>1048.9</ele>
        <time>2014-12-16T19:29:05Z</time>
      </trkpt>
      <trkpt lat="16.62115" lon="-24.34513">
        <ele>1052.2</ele>
        <time>2014-12-16T19:28:25Z</time>
      </trkpt>
      <trkpt lat="16.62167" lon="-24.34565">
        <ele>1055.3</ele>
        <time>2014-12-16T19:26:58Z</time>
      </trkpt>
      <trkpt lat="16.62189" lon="-24.34552">
        <ele>1056.3</ele>
        <time>2014-12-16T19:26:28Z</time>
      </trkpt>
      <trkpt lat="16.62193" lon="-24.3464">
        <ele>1058.4</ele>
        <time>2014-12-16T19:24:55Z</time>
      </trkpt>
      <trkpt lat="16.62211" lon="-24.34703">
        <ele>1058</ele>
        <time>2014-12-16T19:23:55Z</time>
      </trkpt>
      <trkpt lat="16.62195" lon="-24.34852">
        <ele>1056.6</ele>
        <time>2014-12-16T19:21:50Z</time>
      </trkpt>
      <trkpt lat="16.62224" lon="-24.34874">
        <ele>1053.7</ele>
        <time>2014-12-16T19:20:43Z</time>
      </trkpt>
      <trkpt lat="16.62235" lon="-24.3492">
        <ele>1052.3</ele>
        <time>2014-12-16T19:20:00Z</time>
      </trkpt>
      <trkpt lat="16.62339" lon="-24.34967">
        <ele>1051.5</ele>
        <time>2014-12-16T19:18:30Z</time>
      </trkpt>
      <trkpt lat="16.62329" lon="-24.35008">
        <ele>1051.4</ele>
        <time>2014-12-16T19:18:06Z</time>
      </trkpt>
      <trkpt lat="16.62344" lon="-24.35004">
        <ele>1051.8</ele>
        <time>2014-12-16T19:18:03Z</time>
      </trkpt>
      <trkpt lat="16.62349" lon="-24.35022">
        <ele>1052.1</ele>
        <time>2014-12-16T19:17:47Z</time>
      </trkpt>
      <trkpt lat="16.62367" lon="-24.35027">
        <ele>1052.2</ele>
        <time>2014-12-16T19:17:33Z</time>
      </trkpt>
      <trkpt lat="16.62384" lon="-24.35073">
        <ele>1051.6</ele>
        <time>2014-12-16T19:17:00Z</time>
      </trkpt>
      <trkpt lat="16.62437" lon="-24.35082">
        <ele>1050.7</ele>
        <time>2014-12-16T19:16:10Z</time>
      </trkpt>
      <trkpt lat="16.62484" lon="-24.35118">
        <ele>1049.6</ele>
        <time>2014-12-16T19:15:11Z</time>
      </trkpt>
      <trkpt lat="16.62511" lon="-24.35115">
        <ele>1041.8</ele>
        <time>2014-12-16T19:14:02Z</time>
      </trkpt>
      <trkpt lat="16.62521" lon="-24.35137">
        <ele>1039.2</ele>
        <time>2014-12-16T19:13:07Z</time>
      </trkpt>
      <trkpt lat="16.62567" lon="-24.35135">
        <ele>1037.8</ele>
        <time>2014-12-16T19:12:25Z</time>
      </trkpt>
      <trkpt lat="16.6259" lon="-24.35167">
        <ele>1035.2</ele>
        <time>2014-12-16T19:11:22Z</time>
      </trkpt>
      <trkpt lat="16.62617" lon="-24.35174">
        <ele>1034.3</ele>
        <time>2014-12-16T19:10:57Z</time>
      </trkpt>
      <trkpt lat="16.62662" lon="-24.35272">
        <ele>1030.7</ele>
        <time>2014-12-16T19:09:00Z</time>
      </trkpt>
      <trkpt lat="16.62675" lon="-24.35274">
        <ele>1030.5</ele>
        <time>2014-12-16T19:08:44Z</time>
      </trkpt>
      <trkpt lat="16.6266" lon="-24.35278">
        <ele>1030.3</ele>
        <time>2014-12-16T19:08:20Z</time>
      </trkpt>
      <trkpt lat="16.62683" lon="-24.35272">
        <ele>1030.2</ele>
        <time>2014-12-16T19:07:44Z</time>
      </trkpt>
      <trkpt lat="16.62674" lon="-24.35286">
        <ele>1030.2</ele>
        <time>2014-12-16T19:07:12Z</time>
      </trkpt>
      <trkpt lat="16.62707" lon="-24.35334">
        <ele>1028</ele>
        <time>2014-12-16T19:05:45Z</time>
      </trkpt>
      <trkpt lat="16.62719" lon="-24.35322">
        <ele>1027.9</ele>
        <time>2014-12-16T19:05:19Z</time>
      </trkpt>
      <trkpt lat="16.62721" lon="-24.35351">
        <ele>1028.5</ele>
        <time>2014-12-16T19:04:54Z</time>
      </trkpt>
      <trkpt lat="16.62784" lon="-24.35358">
        <ele>1030.6</ele>
        <time>2014-12-16T19:04:02Z</time>
      </trkpt>
      <trkpt lat="16.62809" lon="-24.35388">
        <ele>1027</ele>
        <time>2014-12-16T19:02:53Z</time>
      </trkpt>
      <trkpt lat="16.62773" lon="-24.35413">
        <ele>1010.5</ele>
        <time>2014-12-16T19:02:15Z</time>
      </trkpt>
      <trkpt lat="16.62825" lon="-24.35531">
        <ele>1011.1</ele>
        <time>2014-12-16T19:00:35Z</time>
      </trkpt>
      <trkpt lat="16.62852" lon="-24.35561">
        <ele>1009.3</ele>
        <time>2014-12-16T19:00:02Z</time>
      </trkpt>
      <trkpt lat="16.62853" lon="-24.35616">
        <ele>1005.2</ele>
        <time>2014-12-16T18:59:01Z</time>
      </trkpt>
      <trkpt lat="16.62896" lon="-24.35626">
        <ele>1002.1</ele>
        <time>2014-12-16T18:58:19Z</time>
      </trkpt>
      <trkpt lat="16.62925" lon="-24.35613">
        <ele>999</ele>
        <time>2014-12-16T18:57:53Z</time>
      </trkpt>
      <trkpt lat="16.62917" lon="-24.35608">
        <ele>994.2</ele>
        <time>2014-12-16T18:57:20Z</time>
      </trkpt>
      <trkpt lat="16.62928" lon="-24.35624">
        <ele>980.2</ele>
        <time>2014-12-16T18:56:31Z</time>
      </trkpt>
      <trkpt lat="16.62915" lon="-24.35639">
        <ele>968.2</ele>
        <time>2014-12-16T18:56:02Z</time>
      </trkpt>
      <trkpt lat="16.6293" lon="-24.35662">
        <ele>962.4</ele>
        <time>2014-12-16T18:55:21Z</time>
      </trkpt>
      <trkpt lat="16.62907" lon="-24.35715">
        <ele>947.2</ele>
        <time>2014-12-16T18:53:17Z</time>
      </trkpt>
      <trkpt lat="16.62907" lon="-24.35701">
        <ele>944.6</ele>
        <time>2014-12-16T18:53:03Z</time>
      </trkpt>
      <trkpt lat="16.62916" lon="-24.35725">
        <ele>942.6</ele>
        <time>2014-12-16T18:52:29Z</time>
      </trkpt>
      <trkpt lat="16.62858" lon="-24.35799">
        <ele>896.7</ele>
        <time>2014-12-16T18:50:00Z</time>
      </trkpt>
      <trkpt lat="16.62872" lon="-24.35836">
        <ele>889.4</ele>
        <time>2014-12-16T18:49:01Z</time>
      </trkpt>
      <trkpt lat="16.62893" lon="-24.35829">
        <ele>886.9</ele>
        <time>2014-12-16T18:48:26Z</time>
      </trkpt>
      <trkpt lat="16.62892" lon="-24.35845">
        <ele>880.4</ele>
        <time>2014-12-16T18:47:52Z</time>
      </trkpt>
      <trkpt lat="16.62916" lon="-24.35833">
        <ele>877.6</ele>
        <time>2014-12-16T18:46:49Z</time>
      </trkpt>
      <trkpt lat="16.62926" lon="-24.35851">
        <ele>871.1</ele>
        <time>2014-12-16T18:45:36Z</time>
      </trkpt>
      <trkpt lat="16.62943" lon="-24.35828">
        <ele>869.3</ele>
        <time>2014-12-16T18:45:11Z</time>
      </trkpt>
      <trkpt lat="16.62965" lon="-24.35844">
        <ele>865.7</ele>
        <time>2014-12-16T18:44:21Z</time>
      </trkpt>
      <trkpt lat="16.62996" lon="-24.35933">
        <ele>858.9</ele>
        <time>2014-12-16T18:42:34Z</time>
      </trkpt>
      <trkpt lat="16.63" lon="-24.36071">
        <ele>840.6</ele>
        <time>2014-12-16T18:39:37Z</time>
      </trkpt>
      <trkpt lat="16.63015" lon="-24.36066">
        <ele>838.2</ele>
        <time>2014-12-16T18:38:34Z</time>
      </trkpt>
      <trkpt lat="16.63013" lon="-24.36086">
        <ele>835.3</ele>
        <time>2014-12-16T18:38:04Z</time>
      </trkpt>
      <trkpt lat="16.63036" lon="-24.36078">
        <ele>826.6</ele>
        <time>2014-12-16T18:37:07Z</time>
      </trkpt>
      <trkpt lat="16.63026" lon="-24.36108">
        <ele>813.7</ele>
        <time>2014-12-16T18:36:14Z</time>
      </trkpt>
      <trkpt lat="16.63044" lon="-24.36117">
        <ele>808.6</ele>
        <time>2014-12-16T18:35:28Z</time>
      </trkpt>
      <trkpt lat="16.63024" lon="-24.36148">
        <ele>804</ele>
        <time>2014-12-16T18:34:34Z</time>
      </trkpt>
      <trkpt lat="16.63025" lon="-24.36178">
        <ele>799.4</ele>
        <time>2014-12-16T18:33:17Z</time>
      </trkpt>
      <trkpt lat="16.63065" lon="-24.36163">
        <ele>792.6</ele>
        <time>2014-12-16T18:31:43Z</time>
      </trkpt>
      <trkpt lat="16.63065" lon="-24.36188">
        <ele>799.9</ele>
        <time>2014-12-16T18:29:43Z</time>
      </trkpt>
      <trkpt lat="16.63096" lon="-24.36179">
        <ele>802.3</ele>
        <time>2014-12-16T18:28:45Z</time>
      </trkpt>
      <trkpt lat="16.63119" lon="-24.36227">
        <ele>807.2</ele>
        <time>2014-12-16T18:27:14Z</time>
      </trkpt>
      <trkpt lat="16.6315" lon="-24.36204">
        <ele>809.1</ele>
        <time>2014-12-16T18:26:14Z</time>
      </trkpt>
      <trkpt lat="16.63178" lon="-24.36232">
        <ele>807.8</ele>
        <time>2014-12-16T18:24:41Z</time>
      </trkpt>
      <trkpt lat="16.63201" lon="-24.36232">
        <ele>809.1</ele>
        <time>2014-12-16T18:24:14Z</time>
      </trkpt>
      <trkpt lat="16.63219" lon="-24.36209">
        <ele>809.3</ele>
        <time>2014-12-16T18:22:49Z</time>
      </trkpt>
      <trkpt lat="16.63234" lon="-24.36218">
        <ele>810.1</ele>
        <time>2014-12-16T18:22:18Z</time>
      </trkpt>
      <trkpt lat="16.63226" lon="-24.36237">
        <ele>812.9</ele>
        <time>2014-12-16T18:21:23Z</time>
      </trkpt>
      <trkpt lat="16.6324" lon="-24.3624">
        <ele>812.2</ele>
        <time>2014-12-16T18:20:42Z</time>
      </trkpt>
      <trkpt lat="16.63221" lon="-24.36253">
        <ele>813.3</ele>
        <time>2014-12-16T18:20:05Z</time>
      </trkpt>
      <trkpt lat="16.63151" lon="-24.36249">
        <ele>817.3</ele>
        <time>2014-12-16T18:18:07Z</time>
      </trkpt>
      <trkpt lat="16.63221" lon="-24.36247">
        <ele>823.9</ele>
        <time>2014-12-16T18:16:15Z</time>
      </trkpt>
      <trkpt lat="16.63217" lon="-24.36277">
        <ele>826.2</ele>
        <time>2014-12-16T18:14:52Z</time>
      </trkpt>
      <trkpt lat="16.63194" lon="-24.36294">
        <ele>827.6</ele>
        <time>2014-12-16T18:13:49Z</time>
      </trkpt>
      <trkpt lat="16.63224" lon="-24.36275">
        <ele>829.2</ele>
        <time>2014-12-16T18:12:35Z</time>
      </trkpt>
      <trkpt lat="16.63264" lon="-24.36294">
        <ele>831.3</ele>
        <time>2014-12-16T18:10:54Z</time>
      </trkpt>
      <trkpt lat="16.63273" lon="-24.36271">
        <ele>831.9</ele>
        <time>2014-12-16T18:09:54Z</time>
      </trkpt>
      <trkpt lat="16.63293" lon="-24.36277">
        <ele>837.3</ele>
        <time>2014-12-16T18:08:37Z</time>
      </trkpt>
      <trkpt lat="16.63352" lon="-24.36356">
        <ele>864.7</ele>
        <time>2014-12-16T18:06:19Z</time>
      </trkpt>
      <trkpt lat="16.63341" lon="-24.36369">
        <ele>867.2</ele>
        <time>2014-12-16T18:06:00Z</time>
      </trkpt>
      <trkpt lat="16.63353" lon="-24.36409">
        <ele>871.6</ele>
        <time>2014-12-16T18:05:00Z</time>
      </trkpt>
      <trkpt lat="16.63339" lon="-24.36412">
        <ele>871.4</ele>
        <time>2014-12-16T18:04:03Z</time>
      </trkpt>
      <trkpt lat="16.63392" lon="-24.3653">
        <ele>876</ele>
        <time>2014-12-16T17:58:55Z</time>
      </trkpt>
      <trkpt lat="16.63383" lon="-24.36543">
        <ele>875.6</ele>
        <time>2014-12-16T17:58:24Z</time>
      </trkpt>
      <trkpt lat="16.63414" lon="-24.36569">
        <ele>877.6</ele>
        <time>2014-12-16T17:57:40Z</time>
      </trkpt>
      <trkpt lat="16.63436" lon="-24.36621">
        <ele>878.2</ele>
        <time>2014-12-16T17:56:01Z</time>
      </trkpt>
      <trkpt lat="16.63493" lon="-24.36641">
        <ele>888.6</ele>
        <time>2014-12-16T17:52:20Z</time>
      </trkpt>
      <trkpt lat="16.6345" lon="-24.36653">
        <ele>874.9</ele>
        <time>2014-12-16T17:51:24Z</time>
      </trkpt>
      <trkpt lat="16.63451" lon="-24.36681">
        <ele>874.5</ele>
        <time>2014-12-16T17:50:43Z</time>
      </trkpt>
      <trkpt lat="16.63421" lon="-24.36734">
        <ele>872.2</ele>
        <time>2014-12-16T17:49:11Z</time>
      </trkpt>
      <trkpt lat="16.63433" lon="-24.36752">
        <ele>870.7</ele>
        <time>2014-12-16T17:48:49Z</time>
      </trkpt>
      <trkpt lat="16.63392" lon="-24.36786">
        <ele>868.6</ele>
        <time>2014-12-16T17:47:52Z</time>
      </trkpt>
      <trkpt lat="16.63399" lon="-24.36842">
        <ele>863.9</ele>
        <time>2014-12-16T17:46:58Z</time>
      </trkpt>
      <trkpt lat="16.63385" lon="-24.36875">
        <ele>844.2</ele>
        <time>2014-12-16T17:40:55Z</time>
      </trkpt>
      <trkpt lat="16.63395" lon="-24.36879">
        <ele>842.9</ele>
        <time>2014-12-16T17:40:35Z</time>
      </trkpt>
      <trkpt lat="16.63395" lon="-24.36865">
        <ele>839</ele>
        <time>2014-12-16T17:39:12Z</time>
      </trkpt>
      <trkpt lat="16.63414" lon="-24.36891">
        <ele>828.2</ele>
        <time>2014-12-16T17:36:44Z</time>
      </trkpt>
      <trkpt lat="16.63411" lon="-24.36874">
        <ele>826.5</ele>
        <time>2014-12-16T17:35:59Z</time>
      </trkpt>
      <trkpt lat="16.6341" lon="-24.3689">
        <ele>824.2</ele>
        <time>2014-12-16T17:35:20Z</time>
      </trkpt>
      <trkpt lat="16.63425" lon="-24.3689">
        <ele>819.4</ele>
        <time>2014-12-16T17:33:11Z</time>
      </trkpt>
      <trkpt lat="16.63417" lon="-24.36895">
        <ele>818.6</ele>
        <time>2014-12-16T17:31:37Z</time>
      </trkpt>
      <trkpt lat="16.6344" lon="-24.3691">
        <ele>813.6</ele>
        <time>2014-12-16T17:30:23Z</time>
      </trkpt>
      <trkpt lat="16.63445" lon="-24.3693">
        <ele>808.1</ele>
        <time>2014-12-16T17:29:50Z</time>
      </trkpt>
      <trkpt lat="16.6348" lon="-24.36942">
        <ele>800.2</ele>
        <time>2014-12-16T17:28:19Z</time>
      </trkpt>
      <trkpt lat="16.63485" lon="-24.36964">
        <ele>793.3</ele>
        <time>2014-12-16T17:27:24Z</time>
      </trkpt>
      <trkpt lat="16.63517" lon="-24.36991">
        <ele>782.2</ele>
        <time>2014-12-16T17:26:25Z</time>
      </trkpt>
      <trkpt lat="16.63539" lon="-24.37">
        <ele>776.1</ele>
        <time>2014-12-16T17:25:57Z</time>
      </trkpt>
      <trkpt lat="16.63551" lon="-24.36988">
        <ele>775</ele>
        <time>2014-12-16T17:25:29Z</time>
      </trkpt>
      <trkpt lat="16.63564" lon="-24.36994">
        <ele>774.6</ele>
        <time>2014-12-16T17:25:10Z</time>
      </trkpt>
      <trkpt lat="16.63557" lon="-24.37002">
        <ele>753.1</ele>
        <time>2014-12-16T17:24:12Z</time>
      </trkpt>
      <trkpt lat="16.63576" lon="-24.36973">
        <ele>742.6</ele>
        <time>2014-12-16T17:22:32Z</time>
      </trkpt>
      <trkpt lat="16.63594" lon="-24.36984">
        <ele>737.6</ele>
        <time>2014-12-16T17:22:02Z</time>
      </trkpt>
      <trkpt lat="16.63589" lon="-24.36959">
        <ele>736.8</ele>
        <time>2014-12-16T17:21:20Z</time>
      </trkpt>
      <trkpt lat="16.63606" lon="-24.36972">
        <ele>733.8</ele>
        <time>2014-12-16T17:20:08Z</time>
      </trkpt>
      <trkpt lat="16.63599" lon="-24.36954">
        <ele>734</ele>
        <time>2014-12-16T17:19:30Z</time>
      </trkpt>
      <trkpt lat="16.6362" lon="-24.36955">
        <ele>720.2</ele>
        <time>2014-12-16T17:18:03Z</time>
      </trkpt>
      <trkpt lat="16.63625" lon="-24.36927">
        <ele>715.8</ele>
        <time>2014-12-16T17:16:33Z</time>
      </trkpt>
      <trkpt lat="16.6364" lon="-24.36973">
        <ele>711.4</ele>
        <time>2014-12-16T17:15:20Z</time>
      </trkpt>
      <trkpt lat="16.63632" lon="-24.36953">
        <ele>705.7</ele>
        <time>2014-12-16T17:13:56Z</time>
      </trkpt>
      <trkpt lat="16.63623" lon="-24.36961">
        <ele>696.7</ele>
        <time>2014-12-16T17:12:27Z</time>
      </trkpt>
      <trkpt lat="16.63639" lon="-24.36978">
        <ele>681.5</ele>
        <time>2014-12-16T17:11:47Z</time>
      </trkpt>
      <trkpt lat="16.63627" lon="-24.36975">
        <ele>673.3</ele>
        <time>2014-12-16T17:10:47Z</time>
      </trkpt>
      <trkpt lat="16.63647" lon="-24.36957">
        <ele>667.4</ele>
        <time>2014-12-16T17:09:31Z</time>
      </trkpt>
      <trkpt lat="16.63677" lon="-24.36961">
        <ele>662.4</ele>
        <time>2014-12-16T17:08:14Z</time>
      </trkpt>
      <trkpt lat="16.63679" lon="-24.36926">
        <ele>660.7</ele>
        <time>2014-12-16T17:06:32Z</time>
      </trkpt>
      <trkpt lat="16.63737" lon="-24.36915">
        <ele>659.3</ele>
        <time>2014-12-16T17:05:21Z</time>
      </trkpt>
      <trkpt lat="16.6375" lon="-24.36901">
        <ele>659.3</ele>
        <time>2014-12-16T17:05:02Z</time>
      </trkpt>
      <trkpt lat="16.63762" lon="-24.36913">
        <ele>641.2</ele>
        <time>2014-12-16T17:01:25Z</time>
      </trkpt>
      <trkpt lat="16.63752" lon="-24.36916">
        <ele>641.3</ele>
        <time>2014-12-16T17:01:15Z</time>
      </trkpt>
      <trkpt lat="16.63803" lon="-24.36878">
        <ele>634.1</ele>
        <time>2014-12-16T16:54:35Z</time>
      </trkpt>
      <trkpt lat="16.63826" lon="-24.36893">
        <ele>623.5</ele>
        <time>2014-12-16T16:52:47Z</time>
      </trkpt>
      <trkpt lat="16.63884" lon="-24.36873">
        <ele>614.7</ele>
        <time>2014-12-16T16:48:01Z</time>
      </trkpt>
      <trkpt lat="16.639" lon="-24.36904">
        <ele>618.3</ele>
        <time>2014-12-16T16:44:16Z</time>
      </trkpt>
      <trkpt lat="16.6389" lon="-24.36905">
        <ele>623.7</ele>
        <time>2014-12-16T16:40:07Z</time>
      </trkpt>
      <trkpt lat="16.63901" lon="-24.36901">
        <ele>625.8</ele>
        <time>2014-12-16T16:39:34Z</time>
      </trkpt>
      <trkpt lat="16.63912" lon="-24.3692">
        <ele>628</ele>
        <time>2014-12-16T16:39:04Z</time>
      </trkpt>
      <trkpt lat="16.63905" lon="-24.36964">
        <ele>633.3</ele>
        <time>2014-12-16T16:38:20Z</time>
      </trkpt>
      <trkpt lat="16.63931" lon="-24.36997">
        <ele>633.1</ele>
        <time>2014-12-16T16:37:31Z</time>
      </trkpt>
      <trkpt lat="16.6393" lon="-24.37017">
        <ele>633.4</ele>
        <time>2014-12-16T16:37:13Z</time>
      </trkpt>
      <trkpt lat="16.63969" lon="-24.37037">
        <ele>635.1</ele>
        <time>2014-12-16T16:36:09Z</time>
      </trkpt>
      <trkpt lat="16.63988" lon="-24.37031">
        <ele>636.1</ele>
        <time>2014-12-16T16:35:29Z</time>
      </trkpt>
      <trkpt lat="16.63982" lon="-24.37051">
        <ele>636.1</ele>
        <time>2014-12-16T16:34:58Z</time>
      </trkpt>
      <trkpt lat="16.6397" lon="-24.37048">
        <ele>635.8</ele>
        <time>2014-12-16T16:34:32Z</time>
      </trkpt>
      <trkpt lat="16.63971" lon="-24.37158">
        <ele>629.9</ele>
        <time>2014-12-16T16:32:14Z</time>
      </trkpt>
      <trkpt lat="16.64027" lon="-24.37195">
        <ele>630</ele>
        <time>2014-12-16T16:31:07Z</time>
      </trkpt>
      <trkpt lat="16.64097" lon="-24.37197">
        <ele>621.6</ele>
        <time>2014-12-16T16:26:30Z</time>
      </trkpt>
      <trkpt lat="16.6417" lon="-24.37277">
        <ele>582.8</ele>
        <time>2014-12-16T16:19:13Z</time>
      </trkpt>
      <trkpt lat="16.64169" lon="-24.37261">
        <ele>578.8</ele>
        <time>2014-12-16T16:17:48Z</time>
      </trkpt>
      <trkpt lat="16.64178" lon="-24.37264">
        <ele>575.3</ele>
        <time>2014-12-16T16:17:14Z</time>
      </trkpt>
      <trkpt lat="16.64163" lon="-24.37264">
        <ele>573.3</ele>
        <time>2014-12-16T16:16:54Z</time>
      </trkpt>
      <trkpt lat="16.64183" lon="-24.37319">
        <ele>561.3</ele>
        <time>2014-12-16T16:14:47Z</time>
      </trkpt>
      <trkpt lat="16.64174" lon="-24.37361">
        <ele>557.2</ele>
        <time>2014-12-16T16:13:32Z</time>
      </trkpt>
      <trkpt lat="16.64165" lon="-24.37352">
        <ele>555.5</ele>
        <time>2014-12-16T16:12:34Z</time>
      </trkpt>
      <trkpt lat="16.64151" lon="-24.37389">
        <ele>555.4</ele>
        <time>2014-12-16T16:11:46Z</time>
      </trkpt>
      <trkpt lat="16.64159" lon="-24.37411">
        <ele>525</ele>
        <time>2014-12-16T16:08:53Z</time>
      </trkpt>
      <trkpt lat="16.64164" lon="-24.37395">
        <ele>520</ele>
        <time>2014-12-16T16:07:33Z</time>
      </trkpt>
      <trkpt lat="16.64152" lon="-24.37418">
        <ele>512</ele>
        <time>2014-12-16T16:06:37Z</time>
      </trkpt>
      <trkpt lat="16.64159" lon="-24.37441">
        <ele>505</ele>
        <time>2014-12-16T16:05:58Z</time>
      </trkpt>
      <trkpt lat="16.64145" lon="-24.3745">
        <ele>496</ele>
        <time>2014-12-16T16:05:14Z</time>
      </trkpt>
      <trkpt lat="16.64175" lon="-24.37486">
        <ele>476</ele>
        <time>2014-12-16T16:02:55Z</time>
      </trkpt>
      <trkpt lat="16.64162" lon="-24.37504">
        <ele>472</ele>
        <time>2014-12-16T16:02:10Z</time>
      </trkpt>
      <trkpt lat="16.64177" lon="-24.37558">
        <ele>466</ele>
        <time>2014-12-16T15:59:32Z</time>
      </trkpt>
      <trkpt lat="16.64114" lon="-24.37649">
        <ele>431</ele>
        <time>2014-12-16T15:52:22Z</time>
      </trkpt>
      <trkpt lat="16.64129" lon="-24.37655">
        <ele>427</ele>
        <time>2014-12-16T15:51:46Z</time>
      </trkpt>
      <trkpt lat="16.64127" lon="-24.37673">
        <ele>424</ele>
        <time>2014-12-16T15:51:25Z</time>
      </trkpt>
      <trkpt lat="16.64138" lon="-24.37671">
        <ele>422</ele>
        <time>2014-12-16T15:50:43Z</time>
      </trkpt>
      <trkpt lat="16.64117" lon="-24.3768">
        <ele>418</ele>
        <time>2014-12-16T15:49:14Z</time>
      </trkpt>
      <trkpt lat="16.64126" lon="-24.37692">
        <ele>412</ele>
        <time>2014-12-16T15:48:30Z</time>
      </trkpt>
      <trkpt lat="16.64112" lon="-24.37702">
        <ele>408</ele>
        <time>2014-12-16T15:47:59Z</time>
      </trkpt>
      <trkpt lat="16.64142" lon="-24.37718">
        <ele>401</ele>
        <time>2014-12-16T15:46:41Z</time>
      </trkpt>
      <trkpt lat="16.64158" lon="-24.37711">
        <ele>397</ele>
        <time>2014-12-16T15:46:09Z</time>
      </trkpt>
      <trkpt lat="16.64145" lon="-24.37708">
        <ele>394</ele>
        <time>2014-12-16T15:45:47Z</time>
      </trkpt>
      <trkpt lat="16.64143" lon="-24.37728">
        <ele>392</ele>
        <time>2014-12-16T15:45:31Z</time>
      </trkpt>
      <trkpt lat="16.64129" lon="-24.37729">
        <ele>390</ele>
        <time>2014-12-16T15:45:14Z</time>
      </trkpt>
      <trkpt lat="16.64113" lon="-24.37776">
        <ele>379</ele>
        <time>2014-12-16T15:44:02Z</time>
      </trkpt>
      <trkpt lat="16.6411" lon="-24.37813">
        <ele>361</ele>
        <time>2014-12-16T15:40:55Z</time>
      </trkpt>
      <trkpt lat="16.64132" lon="-24.37824">
        <ele>356</ele>
        <time>2014-12-16T15:40:15Z</time>
      </trkpt>
      <trkpt lat="16.64121" lon="-24.37836">
        <ele>354</ele>
        <time>2014-12-16T15:39:26Z</time>
      </trkpt>
      <trkpt lat="16.6413" lon="-24.37845">
        <ele>352</ele>
        <time>2014-12-16T15:38:38Z</time>
      </trkpt>
      <trkpt lat="16.64101" lon="-24.37842">
        <ele>346</ele>
        <time>2014-12-16T15:37:09Z</time>
      </trkpt>
      <trkpt lat="16.64118" lon="-24.37926">
        <ele>334</ele>
        <time>2014-12-16T15:33:18Z</time>
      </trkpt>
      <trkpt lat="16.64112" lon="-24.3795">
        <ele>330</ele>
        <time>2014-12-16T15:31:49Z</time>
      </trkpt>
      <trkpt lat="16.64101" lon="-24.37925">
        <ele>327</ele>
        <time>2014-12-16T15:30:31Z</time>
      </trkpt>
      <trkpt lat="16.6411" lon="-24.37962">
        <ele>323</ele>
        <time>2014-12-16T15:28:45Z</time>
      </trkpt>
      <trkpt lat="16.64095" lon="-24.37979">
        <ele>322</ele>
        <time>2014-12-16T15:28:14Z</time>
      </trkpt>
      <trkpt lat="16.64105" lon="-24.37986">
        <ele>319</ele>
        <time>2014-12-16T15:26:07Z</time>
      </trkpt>
      <trkpt lat="16.64094" lon="-24.37984">
        <ele>319</ele>
        <time>2014-12-16T15:24:38Z</time>
      </trkpt>
      <trkpt lat="16.64101" lon="-24.37993">
        <ele>319</ele>
        <time>2014-12-16T15:24:36Z</time>
      </trkpt>
      <trkpt lat="16.64104" lon="-24.3798">
        <ele>318</ele>
        <time>2014-12-16T15:23:50Z</time>
      </trkpt>
      <trkpt lat="16.6411" lon="-24.37996">
        <ele>321</ele>
        <time>2014-12-16T15:23:11Z</time>
      </trkpt>
      <trkpt lat="16.64103" lon="-24.37964">
        <ele>317</ele>
        <time>2014-12-16T15:21:56Z</time>
      </trkpt>
      <trkpt lat="16.64106" lon="-24.37983">
        <ele>312</ele>
        <time>2014-12-16T15:20:14Z</time>
      </trkpt>
      <trkpt lat="16.64092" lon="-24.37993">
        <ele>311</ele>
        <time>2014-12-16T15:19:54Z</time>
      </trkpt>
      <trkpt lat="16.6409" lon="-24.37982">
        <ele>312</ele>
        <time>2014-12-16T15:19:20Z</time>
      </trkpt>
      <trkpt lat="16.64122" lon="-24.3797">
        <ele>318</ele>
        <time>2014-12-16T15:17:24Z</time>
      </trkpt>
      <trkpt lat="16.6412" lon="-24.37957">
        <ele>318</ele>
        <time>2014-12-16T15:17:14Z</time>
      </trkpt>
      <trkpt lat="16.64113" lon="-24.37981">
        <ele>317</ele>
        <time>2014-12-16T15:16:50Z</time>
      </trkpt>
      <trkpt lat="16.64094" lon="-24.37976">
        <ele>319</ele>
        <time>2014-12-16T15:14:40Z</time>
      </trkpt>
      <trkpt lat="16.64099" lon="-24.37989">
        <ele>321</ele>
        <time>2014-12-16T15:14:20Z</time>
      </trkpt>
      <trkpt lat="16.64114" lon="-24.3798">
        <ele>325</ele>
        <time>2014-12-16T15:13:28Z</time>
      </trkpt>
      <trkpt lat="16.64101" lon="-24.37988">
        <ele>326</ele>
        <time>2014-12-16T15:13:07Z</time>
      </trkpt>
      <trkpt lat="16.64081" lon="-24.37979">
        <ele>324</ele>
        <time>2014-12-16T15:11:00Z</time>
      </trkpt>
      <trkpt lat="16.64085" lon="-24.38007">
        <ele>322</ele>
        <time>2014-12-16T15:10:34Z</time>
      </trkpt>
      <trkpt lat="16.64071" lon="-24.38032">
        <ele>321</ele>
        <time>2014-12-16T15:10:11Z</time>
      </trkpt>
      <trkpt lat="16.64085" lon="-24.38042">
        <ele>320</ele>
        <time>2014-12-16T15:09:53Z</time>
      </trkpt>
      <trkpt lat="16.64085" lon="-24.38074">
        <ele>318</ele>
        <time>2014-12-16T15:09:21Z</time>
      </trkpt>
      <trkpt lat="16.64062" lon="-24.38121">
        <ele>316</ele>
        <time>2014-12-16T15:08:29Z</time>
      </trkpt>
      <trkpt lat="16.64081" lon="-24.38135">
        <ele>315</ele>
        <time>2014-12-16T15:07:18Z</time>
      </trkpt>
      <trkpt lat="16.64098" lon="-24.38201">
        <ele>306</ele>
        <time>2014-12-16T15:05:37Z</time>
      </trkpt>
      <trkpt lat="16.6413" lon="-24.38243">
        <ele>290</ele>
        <time>2014-12-16T15:03:22Z</time>
      </trkpt>
      <trkpt lat="16.64141" lon="-24.38237">
        <ele>289</ele>
        <time>2014-12-16T15:03:13Z</time>
      </trkpt>
      <trkpt lat="16.64138" lon="-24.38252">
        <ele>285</ele>
        <time>2014-12-16T15:02:43Z</time>
      </trkpt>
      <trkpt lat="16.64163" lon="-24.38262">
        <ele>275</ele>
        <time>2014-12-16T15:01:50Z</time>
      </trkpt>
      <trkpt lat="16.64182" lon="-24.38292">
        <ele>273</ele>
        <time>2014-12-16T15:01:14Z</time>
      </trkpt>
      <trkpt lat="16.64171" lon="-24.38306">
        <ele>270</ele>
        <time>2014-12-16T14:59:49Z</time>
      </trkpt>
      <trkpt lat="16.64207" lon="-24.38347">
        <ele>259</ele>
        <time>2014-12-16T14:58:25Z</time>
      </trkpt>
      <trkpt lat="16.64209" lon="-24.38451">
        <ele>236</ele>
        <time>2014-12-16T14:55:31Z</time>
      </trkpt>
      <trkpt lat="16.64235" lon="-24.38483">
        <ele>235</ele>
        <time>2014-12-16T14:54:45Z</time>
      </trkpt>
      <trkpt lat="16.64209" lon="-24.3849">
        <ele>236</ele>
        <time>2014-12-16T14:54:25Z</time>
      </trkpt>
      <trkpt lat="16.64229" lon="-24.38514">
        <ele>235</ele>
        <time>2014-12-16T14:52:43Z</time>
      </trkpt>
      <trkpt lat="16.64222" lon="-24.38489">
        <ele>234</ele>
        <time>2014-12-16T14:50:47Z</time>
      </trkpt>
      <trkpt lat="16.64219" lon="-24.38503">
        <ele>233</ele>
        <time>2014-12-16T14:50:13Z</time>
      </trkpt>
      <trkpt lat="16.64205" lon="-24.38495">
        <ele>234</ele>
        <time>2014-12-16T14:49:38Z</time>
      </trkpt>
      <trkpt lat="16.64223" lon="-24.38489">
        <ele>234</ele>
        <time>2014-12-16T14:48:11Z</time>
      </trkpt>
      <trkpt lat="16.64205" lon="-24.38498">
        <ele>233</ele>
        <time>2014-12-16T14:47:43Z</time>
      </trkpt>
      <trkpt lat="16.6422" lon="-24.38497">
        <ele>234</ele>
        <time>2014-12-16T14:46:14Z</time>
      </trkpt>
      <trkpt lat="16.64218" lon="-24.38479">
        <ele>234</ele>
        <time>2014-12-16T14:45:30Z</time>
      </trkpt>
      <trkpt lat="16.64237" lon="-24.38497">
        <ele>235</ele>
        <time>2014-12-16T14:45:03Z</time>
      </trkpt>
      <trkpt lat="16.64258" lon="-24.38572">
        <ele>237</ele>
        <time>2014-12-16T14:43:08Z</time>
      </trkpt>
      <trkpt lat="16.6425" lon="-24.38616">
        <ele>237</ele>
        <time>2014-12-16T14:41:52Z</time>
      </trkpt>
      <trkpt lat="16.64197" lon="-24.38636">
        <ele>234</ele>
        <time>2014-12-16T14:38:22Z</time>
      </trkpt>
      <trkpt lat="16.64209" lon="-24.38621">
        <ele>234</ele>
        <time>2014-12-16T14:37:51Z</time>
      </trkpt>
      <trkpt lat="16.64204" lon="-24.38631">
        <ele>233</ele>
        <time>2014-12-16T14:36:51Z</time>
      </trkpt>
      <trkpt lat="16.64222" lon="-24.38632">
        <ele>232</ele>
        <time>2014-12-16T14:35:41Z</time>
      </trkpt>
      <trkpt lat="16.64206" lon="-24.38633">
        <ele>232</ele>
        <time>2014-12-16T14:34:41Z</time>
      </trkpt>
      <trkpt lat="16.64213" lon="-24.38665">
        <ele>229</ele>
        <time>2014-12-16T14:34:05Z</time>
      </trkpt>
      <trkpt lat="16.64195" lon="-24.38685">
        <ele>228</ele>
        <time>2014-12-16T14:33:35Z</time>
      </trkpt>
      <trkpt lat="16.64225" lon="-24.38841">
        <ele>222</ele>
        <time>2014-12-16T14:28:36Z</time>
      </trkpt>
      <trkpt lat="16.64209" lon="-24.38849">
        <ele>215</ele>
        <time>2014-12-16T14:26:40Z</time>
      </trkpt>
      <trkpt lat="16.64209" lon="-24.38888">
        <ele>211</ele>
        <time>2014-12-16T14:25:23Z</time>
      </trkpt>
      <trkpt lat="16.6435" lon="-24.38918">
        <ele>202</ele>
        <time>2014-12-16T14:21:05Z</time>
      </trkpt>
      <trkpt lat="16.64314" lon="-24.38956">
        <ele>199</ele>
        <time>2014-12-16T14:19:42Z</time>
      </trkpt>
      <trkpt lat="16.64239" lon="-24.38962">
        <ele>196</ele>
        <time>2014-12-16T14:17:47Z</time>
      </trkpt>
      <trkpt lat="16.64195" lon="-24.3903">
        <ele>198</ele>
        <time>2014-12-16T14:16:24Z</time>
      </trkpt>
      <trkpt lat="16.64204" lon="-24.39067">
        <ele>199</ele>
        <time>2014-12-16T14:15:53Z</time>
      </trkpt>
      <trkpt lat="16.6425" lon="-24.39096">
        <ele>202</ele>
        <time>2014-12-16T14:14:57Z</time>
      </trkpt>
      <trkpt lat="16.64271" lon="-24.39188">
        <ele>196</ele>
        <time>2014-12-16T14:13:01Z</time>
      </trkpt>
      <trkpt lat="16.64304" lon="-24.3922">
        <ele>193</ele>
        <time>2014-12-16T14:12:19Z</time>
      </trkpt>
      <trkpt lat="16.64324" lon="-24.39355">
        <ele>186</ele>
        <time>2014-12-16T14:10:13Z</time>
      </trkpt>
      <trkpt lat="16.64294" lon="-24.39478">
        <ele>185</ele>
        <time>2014-12-16T14:07:28Z</time>
      </trkpt>
      <trkpt lat="16.64275" lon="-24.39496">
        <ele>186</ele>
        <time>2014-12-16T14:05:11Z</time>
      </trkpt>
      <trkpt lat="16.64255" lon="-24.3949">
        <ele>187</ele>
        <time>2014-12-16T14:02:07Z</time>
      </trkpt>
      <trkpt lat="16.64282" lon="-24.39484">
        <ele>189</ele>
        <time>2014-12-16T14:01:02Z</time>
      </trkpt>
      <trkpt lat="16.64264" lon="-24.39484">
        <ele>188</ele>
        <time>2014-12-16T13:58:52Z</time>
      </trkpt>
      <trkpt lat="16.64268" lon="-24.39503">
        <ele>188</ele>
        <time>2014-12-16T13:57:36Z</time>
      </trkpt>
      <trkpt lat="16.64268" lon="-24.39484">
        <ele>187</ele>
        <time>2014-12-16T13:56:52Z</time>
      </trkpt>
      <trkpt lat="16.64229" lon="-24.39507">
        <ele>183</ele>
        <time>2014-12-16T13:55:30Z</time>
      </trkpt>
      <trkpt lat="16.64252" lon="-24.39495">
        <ele>183</ele>
        <time>2014-12-16T13:53:14Z</time>
      </trkpt>
      <trkpt lat="16.64244" lon="-24.39483">
        <ele>183</ele>
        <time>2014-12-16T13:51:51Z</time>
      </trkpt>
      <trkpt lat="16.64241" lon="-24.39495">
        <ele>181</ele>
        <time>2014-12-16T13:51:01Z</time>
      </trkpt>
      <trkpt lat="16.64255" lon="-24.39496">
        <ele>181</ele>
        <time>2014-12-16T13:48:01Z</time>
      </trkpt>
      <trkpt lat="16.64251" lon="-24.39488">
        <ele>181</ele>
        <time>2014-12-16T13:47:43Z</time>
      </trkpt>
      <trkpt lat="16.64268" lon="-24.39501">
        <ele>177</ele>
        <time>2014-12-16T13:44:01Z</time>
      </trkpt>
      <trkpt lat="16.64281" lon="-24.39529">
        <ele>164</ele>
        <time>2014-12-16T13:42:17Z</time>
      </trkpt>
      <trkpt lat="16.64279" lon="-24.39513">
        <ele>152</ele>
        <time>2014-12-16T13:41:07Z</time>
      </trkpt>
      <trkpt lat="16.64218" lon="-24.39807">
        <ele>142</ele>
        <time>2014-12-16T13:40:38Z</time>
      </trkpt>
      <trkpt lat="16.64092" lon="-24.40179">
        <ele>134</ele>
        <time>2014-12-16T13:40:14Z</time>
      </trkpt>
      <trkpt lat="16.64054" lon="-24.40253">
        <ele>132</ele>
        <time>2014-12-16T13:40:09Z</time>
      </trkpt>
      <trkpt lat="16.6387" lon="-24.40472">
        <ele>126</ele>
        <time>2014-12-16T13:39:50Z</time>
      </trkpt>
      <trkpt lat="16.63794" lon="-24.40608">
        <ele>122</ele>
        <time>2014-12-16T13:39:38Z</time>
      </trkpt>
      <trkpt lat="16.63627" lon="-24.40766">
        <ele>120</ele>
        <time>2014-12-16T13:39:19Z</time>
      </trkpt>
      <trkpt lat="16.63492" lon="-24.40922">
        <ele>118</ele>
        <time>2014-12-16T13:39:05Z</time>
      </trkpt>
      <trkpt lat="16.63429" lon="-24.40943">
        <ele>115</ele>
        <time>2014-12-16T13:38:57Z</time>
      </trkpt>
      <trkpt lat="16.63321" lon="-24.40951">
        <ele>110</ele>
        <time>2014-12-16T13:38:43Z</time>
      </trkpt>
      <trkpt lat="16.63189" lon="-24.41051">
        <ele>103</ele>
        <time>2014-12-16T13:38:25Z</time>
      </trkpt>
      <trkpt lat="16.63024" lon="-24.41301">
        <ele>94</ele>
        <time>2014-12-16T13:38:03Z</time>
      </trkpt>
      <trkpt lat="16.62964" lon="-24.41495">
        <ele>85</ele>
        <time>2014-12-16T13:37:42Z</time>
      </trkpt>
      <trkpt lat="16.62893" lon="-24.41574">
        <ele>82</ele>
        <time>2014-12-16T13:37:31Z</time>
      </trkpt>
      <trkpt lat="16.6277" lon="-24.41703">
        <ele>79</ele>
        <time>2014-12-16T13:37:24Z</time>
      </trkpt>
      <trkpt lat="16.61953" lon="-24.41716">
        <ele>66</ele>
        <time>2014-12-16T13:36:45Z</time>
      </trkpt>
      <trkpt lat="16.60431" lon="-24.41755">
        <ele>47</ele>
        <time>2014-12-16T13:35:10Z</time>
      </trkpt>
      <trkpt lat="16.60293" lon="-24.41489">
        <ele>44</ele>
        <time>2014-12-16T13:34:42Z</time>
      </trkpt>
      <trkpt lat="16.60255" lon="-24.41391">
        <ele>44</ele>
        <time>2014-12-16T13:34:38Z</time>
      </trkpt>
      <trkpt lat="16.59726" lon="-24.40901">
        <ele>43</ele>
        <time>2014-12-16T13:34:33Z</time>
      </trkpt>
      <trkpt lat="16.59436" lon="-24.40362">
        <ele>35</ele>
        <time>2014-12-16T13:33:08Z</time>
      </trkpt>
      <trkpt lat="16.58808" lon="-24.39284">
        <ele>32</ele>
        <time>2014-12-16T13:32:19Z</time>
      </trkpt>
      <trkpt lat="16.58556" lon="-24.38836">
        <ele>30</ele>
        <time>2014-12-16T13:31:57Z</time>
      </trkpt>
      <trkpt lat="16.58521" lon="-24.38652">
        <ele>29</ele>
        <time>2014-12-16T13:31:41Z</time>
      </trkpt>
      <trkpt lat="16.58478" lon="-24.38559">
        <ele>29</ele>
        <time>2014-12-16T13:31:34Z</time>
      </trkpt>
      <trkpt lat="16.58456" lon="-24.38469">
        <ele>29</ele>
        <time>2014-12-16T13:31:28Z</time>
      </trkpt>
      <trkpt lat="16.58346" lon="-24.37569">
        <ele>26</ele>
        <time>2014-12-16T13:30:43Z</time>
      </trkpt>
      <trkpt lat="16.58311" lon="-24.3741">
        <ele>26</ele>
        <time>2014-12-16T13:30:35Z</time>
      </trkpt>
      <trkpt lat="16.58204" lon="-24.37221">
        <ele>26</ele>
        <time>2014-12-16T13:30:24Z</time>
      </trkpt>
      <trkpt lat="16.57992" lon="-24.36903">
        <ele>26</ele>
        <time>2014-12-16T13:30:04Z</time>
      </trkpt>
      <trkpt lat="16.57939" lon="-24.3679">
        <ele>25</ele>
        <time>2014-12-16T13:29:56Z</time>
      </trkpt>
      <trkpt lat="16.57847" lon="-24.3652">
        <ele>26</ele>
        <time>2014-12-16T13:29:10Z</time>
      </trkpt>
      <trkpt lat="16.57866" lon="-24.36539">
        <ele>26</ele>
        <time>2014-12-16T13:28:37Z</time>
      </trkpt>
      <trkpt lat="16.57864" lon="-24.3653">
        <ele>25</ele>
        <time>2014-12-16T13:28:27Z</time>
      </trkpt>
      <trkpt lat="16.57841" lon="-24.36493">
        <ele>25</ele>
        <time>2014-12-16T13:28:16Z</time>
      </trkpt>
      <trkpt lat="16.5769" lon="-24.36302">
        <ele>25</ele>
        <time>2014-12-16T13:27:57Z</time>
      </trkpt>
      <trkpt lat="16.57391" lon="-24.36187">
        <ele>25</ele>
        <time>2014-12-16T13:27:23Z</time>
      </trkpt>
      <trkpt lat="16.57338" lon="-24.36146">
        <ele>26</ele>
        <time>2014-12-16T13:27:17Z</time>
      </trkpt>
      <trkpt lat="16.57255" lon="-24.36042">
        <ele>26</ele>
        <time>2014-12-16T13:26:59Z</time>
      </trkpt>
      <trkpt lat="16.56974" lon="-24.35836">
        <ele>27</ele>
        <time>2014-12-16T13:26:27Z</time>
      </trkpt>
      <trkpt lat="16.56903" lon="-24.35798">
        <ele>27</ele>
        <time>2014-12-16T13:26:02Z</time>
      </trkpt>
      <trkpt lat="16.56912" lon="-24.35801">
        <ele>27</ele>
        <time>2014-12-16T13:25:34Z</time>
      </trkpt>
      <trkpt lat="16.56913" lon="-24.35766">
        <ele>27</ele>
        <time>2014-12-16T13:25:23Z</time>
      </trkpt>
      <trkpt lat="16.56898" lon="-24.35666">
        <ele>25</ele>
        <time>2014-12-16T13:22:41Z</time>
      </trkpt>
      <trkpt lat="16.56829" lon="-24.35659">
        <ele>24</ele>
        <time>2014-12-16T13:22:26Z</time>
      </trkpt>
      <trkpt lat="16.5678" lon="-24.35791">
        <ele>22</ele>
        <time>2014-12-16T13:21:55Z</time>
      </trkpt>
      <trkpt lat="16.5678" lon="-24.35823">
        <ele>21</ele>
        <time>2014-12-16T13:21:50Z</time>
      </trkpt>
      <trkpt lat="16.56709" lon="-24.35869">
        <ele>21</ele>
        <time>2014-12-16T13:21:38Z</time>
      </trkpt>
      <trkpt lat="16.56637" lon="-24.35889">
        <ele>24</ele>
        <time>2014-12-16T13:19:11Z</time>
      </trkpt>
      <trkpt lat="16.56606" lon="-24.35872">
        <ele>26</ele>
        <time>2014-12-16T13:18:58Z</time>
      </trkpt>
      <trkpt lat="16.56605" lon="-24.35837">
        <ele>29</ele>
        <time>2014-12-16T13:10:55Z</time>
      </trkpt>
      <trkpt lat="16.56623" lon="-24.35837">
        <ele>30</ele>
        <time>2014-12-16T13:09:17Z</time>
      </trkpt>
      <trkpt lat="16.5663" lon="-24.35847">
        <ele>30</ele>
        <time>2014-12-16T13:08:57Z</time>
      </trkpt>
      <trkpt lat="16.56575" lon="-24.35855">
        <ele>106</ele>
        <time>2014-12-16T13:03:25Z</time>
      </trkpt>
      <trkpt lat="16.56587" lon="-24.35861">
        <ele>35</ele>
        <time>2014-12-16T13:01:00Z</time>
      </trkpt>
      <trkpt lat="16.56593" lon="-24.35804">
        <ele>37</ele>
        <time>2014-12-16T13:00:15Z</time>
      </trkpt>
      <trkpt lat="16.5656" lon="-24.35799">
        <ele>42</ele>
        <time>2014-12-16T12:59:38Z</time>
      </trkpt>
      <trkpt lat="16.56539" lon="-24.35704">
        <ele>32</ele>
        <time>2014-12-16T12:58:23Z</time>
      </trkpt>
      <trkpt lat="16.56533" lon="-24.35715">
        <ele>33</ele>
        <time>2014-12-16T12:58:10Z</time>
      </trkpt>
      <trkpt lat="16.56517" lon="-24.35701">
        <ele>35</ele>
        <time>2014-12-16T12:53:36Z</time>
      </trkpt>
      <trkpt lat="16.56569" lon="-24.35706">
        <ele>30</ele>
        <time>2014-12-16T12:52:20Z</time>
      </trkpt>
      <trkpt lat="16.56585" lon="-24.35796">
        <ele>28</ele>
        <time>2014-12-16T12:51:09Z</time>
      </trkpt>
      <trkpt lat="16.56618" lon="-24.3585">
        <ele>25</ele>
        <time>2014-12-16T12:49:48Z</time>
      </trkpt>
      <trkpt lat="16.56617" lon="-24.35877">
        <ele>26</ele>
        <time>2014-12-16T12:49:22Z</time>
      </trkpt>
      <trkpt lat="16.56636" lon="-24.35881">
        <ele>27</ele>
        <time>2014-12-16T12:48:53Z</time>
      </trkpt>
      <trkpt lat="16.56584" lon="-24.35902">
        <ele>30</ele>
        <time>2014-12-16T12:48:18Z</time>
      </trkpt>
      <trkpt lat="16.56633" lon="-24.35886">
        <ele>38</ele>
        <time>2014-12-16T12:42:00Z</time>
      </trkpt>
      <trkpt lat="16.56609" lon="-24.35851">
        <ele>40</ele>
        <time>2014-12-16T12:41:14Z</time>
      </trkpt>
      <trkpt lat="16.56622" lon="-24.35886">
        <ele>40</ele>
        <time>2014-12-16T12:40:26Z</time>
      </trkpt>
      <trkpt lat="16.56797" lon="-24.35815">
        <ele>31</ele>
        <time>2014-12-16T12:37:36Z</time>
      </trkpt>
      <trkpt lat="16.56885" lon="-24.35804">
        <ele>33</ele>
        <time>2014-12-16T12:36:22Z</time>
      </trkpt>
      <trkpt lat="16.56937" lon="-24.35817">
        <ele>32</ele>
        <time>2014-12-16T12:35:33Z</time>
      </trkpt>
      <trkpt lat="16.56909" lon="-24.35813">
        <ele>28</ele>
        <time>2014-12-16T12:35:16Z</time>
      </trkpt>
      <trkpt lat="16.56913" lon="-24.35804">
        <ele>26</ele>
        <time>2014-12-16T12:35:08Z</time>
      </trkpt>
      <trkpt lat="16.5698" lon="-24.35821">
        <ele>25</ele>
        <time>2014-12-16T12:34:16Z</time>
      </trkpt>
      <trkpt lat="16.57008" lon="-24.35867">
        <ele>22</ele>
        <time>2014-12-16T12:33:24Z</time>
      </trkpt>
      <trkpt lat="16.57095" lon="-24.35918">
        <ele>29</ele>
        <time>2014-12-16T12:31:38Z</time>
      </trkpt>
    </trkseg>
  </trk>
</gpx>